sensor_id;sensor_type;location;lat;lon;timestamp;pressure;altitude;pressure_sealevel;temperature;humidity
24336;BME280;33098;52.400;16.880;2022-10-24T00:00:10;100510.27;;;13.42;100.00
24336;BME280;33098;52.400;16.880;2022-10-24T00:03:01;100505.39;;;13.45;100.00
24336;BME280;33098;52.400;16.880;2022-10-24T00:05:28;100506.22;;;13.48;100.00
24336;BME280;33098;52.400;16.880;2022-10-24T00:08:01;100510.42;;;13.48;100.00
24336;BME280;33098;52.400;16.880;2022-10-24T00:10:28;100510.80;;;13.52;100.00
24336;BME280;33098;52.400;16.880;2022-10-24T00:13:02;100511.99;;;13.59;100.00
24336;BME280;33098;52.400;16.880;2022-10-24T00:15:32;100504.13;;;13.65;100.00
24336;BME280;33098;52.400;16.880;2022-10-24T00:18:02;100496.32;;;13.67;100.00
24336;BME280;33098;52.400;16.880;2022-10-24T00:20:29;100497.81;;;13.68;100.00
24336;BME280;33098;52.400;16.880;2022-10-24T00:23:04;100497.60;;;13.68;100.00
24336;BME280;33098;52.400;16.880;2022-10-24T00:25:31;100497.03;;;13.72;100.00
24336;BME280;33098;52.400;16.880;2022-10-24T00:27:58;100499.29;;;13.75;100.00
24336;BME280;33098;52.400;16.880;2022-10-24T00:30:30;100497.88;;;13.73;100.00
24336;BME280;33098;52.400;16.880;2022-10-24T00:33:02;100497.66;;;13.73;100.00
24336;BME280;33098;52.400;16.880;2022-10-24T00:35:32;100496.14;;;13.76;100.00
24336;BME280;33098;52.400;16.880;2022-10-24T00:38:02;100499.17;;;13.78;100.00
24336;BME280;33098;52.400;16.880;2022-10-24T00:40:31;100499.80;;;13.79;100.00
24336;BME280;33098;52.400;16.880;2022-10-24T00:43:01;100498.36;;;13.79;100.00
24336;BME280;33098;52.400;16.880;2022-10-24T00:48:08;100507.55;;;13.77;100.00
24336;BME280;33098;52.400;16.880;2022-10-24T00:50:39;100501.27;;;13.75;100.00
24336;BME280;33098;52.400;16.880;2022-10-24T00:53:06;100500.29;;;13.72;100.00
24336;BME280;33098;52.400;16.880;2022-10-24T00:55:37;100494.52;;;13.71;100.00
24336;BME280;33098;52.400;16.880;2022-10-24T00:58:09;100502.67;;;13.71;100.00
24336;BME280;33098;52.400;16.880;2022-10-24T01:00:40;100500.41;;;13.63;100.00
24336;BME280;33098;52.400;16.880;2022-10-24T01:03:10;100491.17;;;13.59;100.00
24336;BME280;33098;52.400;16.880;2022-10-24T01:06:45;100484.18;;;13.59;100.00
24336;BME280;33098;52.400;16.880;2022-10-24T01:32:08;100435.95;;;13.71;100.00
24336;BME280;33098;52.400;16.880;2022-10-24T01:34:39;100438.88;;;13.73;100.00
24336;BME280;33098;52.400;16.880;2022-10-24T01:37:24;100431.65;;;13.68;100.00
24336;BME280;33098;52.400;16.880;2022-10-24T01:40:01;100420.59;;;13.72;100.00
24336;BME280;33098;52.400;16.880;2022-10-24T01:42:37;100418.66;;;13.73;100.00
24336;BME280;33098;52.400;16.880;2022-10-24T01:45:12;100412.41;;;13.66;100.00
24336;BME280;33098;52.400;16.880;2022-10-24T01:47:48;100408.70;;;13.65;100.00
24336;BME280;33098;52.400;16.880;2022-10-24T01:50:24;100413.90;;;13.73;100.00
24336;BME280;33098;52.400;16.880;2022-10-24T01:52:52;100414.55;;;13.77;100.00
24336;BME280;33098;52.400;16.880;2022-10-24T01:55:26;100409.56;;;13.83;100.00
24336;BME280;33098;52.400;16.880;2022-10-24T01:57:57;100401.80;;;13.86;100.00
24336;BME280;33098;52.400;16.880;2022-10-24T02:00:35;100390.73;;;13.88;100.00
24336;BME280;33098;52.400;16.880;2022-10-24T02:03:08;100393.94;;;13.88;100.00
24336;BME280;33098;52.400;16.880;2022-10-24T02:05:44;100391.55;;;13.85;100.00
24336;BME280;33098;52.400;16.880;2022-10-24T02:08:16;100394.33;;;13.89;100.00
24336;BME280;33098;52.400;16.880;2022-10-24T02:10:49;100415.70;;;13.80;100.00
24336;BME280;33098;52.400;16.880;2022-10-24T02:13:23;100414.95;;;13.69;100.00
24336;BME280;33098;52.400;16.880;2022-10-24T02:15:52;100419.06;;;13.63;100.00
24336;BME280;33098;52.400;16.880;2022-10-24T02:18:21;100423.20;;;13.57;100.00
24336;BME280;33098;52.400;16.880;2022-10-24T02:23:46;100424.16;;;13.58;100.00
24336;BME280;33098;52.400;16.880;2022-10-24T02:26:23;100423.73;;;13.67;100.00
24336;BME280;33098;52.400;16.880;2022-10-24T02:28:53;100427.26;;;13.63;100.00
24336;BME280;33098;52.400;16.880;2022-10-24T02:31:24;100425.05;;;13.54;100.00
24336;BME280;33098;52.400;16.880;2022-10-24T02:34:01;100428.98;;;13.54;100.00
24336;BME280;33098;52.400;16.880;2022-10-24T02:36:31;100429.62;;;13.59;100.00
24336;BME280;33098;52.400;16.880;2022-10-24T02:38:59;100426.27;;;13.66;100.00
24336;BME280;33098;52.400;16.880;2022-10-24T02:41:36;100429.20;;;13.67;100.00
24336;BME280;33098;52.400;16.880;2022-10-24T02:44:12;100419.06;;;13.65;100.00
24336;BME280;33098;52.400;16.880;2022-10-24T02:46:42;100413.66;;;13.70;100.00
24336;BME280;33098;52.400;16.880;2022-10-24T02:49:15;100405.17;;;13.72;100.00
24336;BME280;33098;52.400;16.880;2022-10-24T02:51:44;100398.48;;;13.78;100.00
24336;BME280;33098;52.400;16.880;2022-10-24T02:54:15;100391.83;;;13.82;100.00
24336;BME280;33098;52.400;16.880;2022-10-24T02:56:46;100367.92;;;13.84;100.00
24336;BME280;33098;52.400;16.880;2022-10-24T02:59:14;100304.71;;;13.83;100.00
24336;BME280;33098;52.400;16.880;2022-10-24T03:01:44;100290.95;;;13.83;100.00
24336;BME280;33098;52.400;16.880;2022-10-24T03:04:11;100314.04;;;13.78;100.00
24336;BME280;33098;52.400;16.880;2022-10-24T03:06:38;100331.95;;;13.64;100.00
24336;BME280;33098;52.400;16.880;2022-10-24T03:09:06;100347.06;;;13.53;100.00
24336;BME280;33098;52.400;16.880;2022-10-24T03:11:38;100364.81;;;13.40;100.00
24336;BME280;33098;52.400;16.880;2022-10-24T03:14:05;100374.91;;;13.31;100.00
24336;BME280;33098;52.400;16.880;2022-10-24T03:16:34;100378.94;;;13.23;100.00
24336;BME280;33098;52.400;16.880;2022-10-24T03:19:04;100374.47;;;13.20;100.00
24336;BME280;33098;52.400;16.880;2022-10-24T03:21:32;100371.89;;;13.21;100.00
24336;BME280;33098;52.400;16.880;2022-10-24T03:23:59;100365.81;;;13.25;100.00
24336;BME280;33098;52.400;16.880;2022-10-24T03:26:26;100374.23;;;13.33;100.00
24336;BME280;33098;52.400;16.880;2022-10-24T03:28:56;100374.70;;;13.35;100.00
24336;BME280;33098;52.400;16.880;2022-10-24T03:31:23;100374.77;;;13.36;100.00
24336;BME280;33098;52.400;16.880;2022-10-24T03:33:50;100372.00;;;13.39;100.00
24336;BME280;33098;52.400;16.880;2022-10-24T03:36:18;100363.44;;;13.44;100.00
24336;BME280;33098;52.400;16.880;2022-10-24T03:38:48;100360.15;;;13.54;100.00
24336;BME280;33098;52.400;16.880;2022-10-24T03:41:16;100368.70;;;13.58;100.00
24336;BME280;33098;52.400;16.880;2022-10-24T03:43:45;100368.60;;;13.51;100.00
24336;BME280;33098;52.400;16.880;2022-10-24T03:46:13;100369.02;;;13.43;100.00
24336;BME280;33098;52.400;16.880;2022-10-24T03:48:39;100373.81;;;13.35;100.00
24336;BME280;33098;52.400;16.880;2022-10-24T03:51:06;100369.23;;;13.31;100.00
24336;BME280;33098;52.400;16.880;2022-10-24T03:53:36;100366.97;;;13.34;100.00
24336;BME280;33098;52.400;16.880;2022-10-24T03:56:03;100367.54;;;13.40;100.00
24336;BME280;33098;52.400;16.880;2022-10-24T03:58:36;100369.64;;;13.40;100.00
24336;BME280;33098;52.400;16.880;2022-10-24T04:01:03;100360.70;;;13.40;100.00
24336;BME280;33098;52.400;16.880;2022-10-24T04:03:35;100362.71;;;13.49;100.00
24336;BME280;33098;52.400;16.880;2022-10-24T04:06:05;100357.76;;;13.51;100.00
24336;BME280;33098;52.400;16.880;2022-10-24T04:08:32;100356.35;;;13.51;100.00
24336;BME280;33098;52.400;16.880;2022-10-24T04:10:59;100356.75;;;13.49;100.00
24336;BME280;33098;52.400;16.880;2022-10-24T04:13:32;100350.87;;;13.45;100.00
24336;BME280;33098;52.400;16.880;2022-10-24T04:16:00;100353.84;;;13.49;100.00
24336;BME280;33098;52.400;16.880;2022-10-24T04:18:29;100363.79;;;13.47;100.00
24336;BME280;33098;52.400;16.880;2022-10-24T04:21:01;100371.80;;;13.44;100.00
24336;BME280;33098;52.400;16.880;2022-10-24T04:23:30;100376.40;;;13.38;100.00
24336;BME280;33098;52.400;16.880;2022-10-24T04:26:07;100372.85;;;13.36;100.00
24336;BME280;33098;52.400;16.880;2022-10-24T04:28:38;100363.38;;;13.36;100.00
24336;BME280;33098;52.400;16.880;2022-10-24T04:31:08;100369.86;;;13.44;100.00
24336;BME280;33098;52.400;16.880;2022-10-24T04:33:39;100365.84;;;13.45;100.00
24336;BME280;33098;52.400;16.880;2022-10-24T04:36:07;100368.29;;;13.47;100.00
24336;BME280;33098;52.400;16.880;2022-10-24T04:38:37;100366.04;;;13.52;100.00
24336;BME280;33098;52.400;16.880;2022-10-24T04:41:08;100370.92;;;13.49;100.00
24336;BME280;33098;52.400;16.880;2022-10-24T04:43:38;100364.20;;;13.41;100.00
24336;BME280;33098;52.400;16.880;2022-10-24T04:46:11;100363.30;;;13.43;100.00
24336;BME280;33098;52.400;16.880;2022-10-24T04:48:43;100366.98;;;13.44;100.00
24336;BME280;33098;52.400;16.880;2022-10-24T04:51:12;100367.09;;;13.36;100.00
24336;BME280;33098;52.400;16.880;2022-10-24T04:53:39;100368.77;;;13.30;100.00
24336;BME280;33098;52.400;16.880;2022-10-24T04:56:11;100377.55;;;13.25;100.00
24336;BME280;33098;52.400;16.880;2022-10-24T04:58:40;100385.70;;;13.20;100.00
24336;BME280;33098;52.400;16.880;2022-10-24T05:01:10;100390.46;;;13.16;100.00
24336;BME280;33098;52.400;16.880;2022-10-24T05:03:38;100392.39;;;13.18;100.00
24336;BME280;33098;52.400;16.880;2022-10-24T05:06:08;100394.53;;;13.22;100.00
24336;BME280;33098;52.400;16.880;2022-10-24T05:08:36;100397.66;;;13.21;100.00
24336;BME280;33098;52.400;16.880;2022-10-24T05:11:03;100400.16;;;13.23;100.00
24336;BME280;33098;52.400;16.880;2022-10-24T05:13:33;100397.44;;;13.24;100.00
24336;BME280;33098;52.400;16.880;2022-10-24T05:16:00;100392.23;;;13.24;100.00
24336;BME280;33098;52.400;16.880;2022-10-24T05:18:32;100399.04;;;13.22;100.00
24336;BME280;33098;52.400;16.880;2022-10-24T05:21:01;100397.60;;;13.18;100.00
24336;BME280;33098;52.400;16.880;2022-10-24T05:23:35;100397.89;;;13.15;100.00
24336;BME280;33098;52.400;16.880;2022-10-24T05:26:02;100396.61;;;13.12;100.00
24336;BME280;33098;52.400;16.880;2022-10-24T05:28:28;100398.30;;;13.14;100.00
24336;BME280;33098;52.400;16.880;2022-10-24T05:30:55;100399.77;;;13.14;100.00
24336;BME280;33098;52.400;16.880;2022-10-24T05:33:22;100398.64;;;13.15;100.00
24336;BME280;33098;52.400;16.880;2022-10-24T05:35:50;100396.50;;;13.15;100.00
24336;BME280;33098;52.400;16.880;2022-10-24T05:38:17;100394.34;;;13.11;100.00
24336;BME280;33098;52.400;16.880;2022-10-24T05:40:44;100386.15;;;13.07;100.00
24336;BME280;33098;52.400;16.880;2022-10-24T05:43:16;100389.88;;;13.11;100.00
24336;BME280;33098;52.400;16.880;2022-10-24T05:45:43;100390.66;;;13.18;100.00
24336;BME280;33098;52.400;16.880;2022-10-24T05:48:12;100390.39;;;13.13;100.00
24336;BME280;33098;52.400;16.880;2022-10-24T05:50:39;100387.68;;;13.06;100.00
24336;BME280;33098;52.400;16.880;2022-10-24T05:53:07;100389.30;;;13.00;100.00
24336;BME280;33098;52.400;16.880;2022-10-24T05:55:40;100385.08;;;12.97;100.00
24336;BME280;33098;52.400;16.880;2022-10-24T05:58:06;100388.20;;;12.94;100.00
24336;BME280;33098;52.400;16.880;2022-10-24T06:00:35;100386.69;;;12.90;100.00
24336;BME280;33098;52.400;16.880;2022-10-24T06:03:02;100385.67;;;12.88;100.00
24336;BME280;33098;52.400;16.880;2022-10-24T06:05:28;100386.32;;;12.85;100.00
24336;BME280;33098;52.400;16.880;2022-10-24T06:07:57;100385.45;;;12.87;100.00
24336;BME280;33098;52.400;16.880;2022-10-24T06:10:31;100383.83;;;12.93;100.00
24336;BME280;33098;52.400;16.880;2022-10-24T06:13:01;100389.77;;;12.98;100.00
24336;BME280;33098;52.400;16.880;2022-10-24T06:15:30;100394.52;;;12.99;100.00
24336;BME280;33098;52.400;16.880;2022-10-24T06:18:00;100397.88;;;12.99;100.00
24336;BME280;33098;52.400;16.880;2022-10-24T06:20:29;100396.40;;;13.02;100.00
24336;BME280;33098;52.400;16.880;2022-10-24T06:22:58;100396.45;;;13.09;100.00
24336;BME280;33098;52.400;16.880;2022-10-24T06:25:25;100398.39;;;13.14;100.00
24336;BME280;33098;52.400;16.880;2022-10-24T06:27:51;100398.02;;;13.12;100.00
24336;BME280;33098;52.400;16.880;2022-10-24T06:30:18;100397.61;;;13.06;100.00
24336;BME280;33098;52.400;16.880;2022-10-24T06:32:48;100393.08;;;13.01;100.00
24336;BME280;33098;52.400;16.880;2022-10-24T06:35:14;100395.36;;;12.96;100.00
24336;BME280;33098;52.400;16.880;2022-10-24T06:37:41;100397.66;;;12.91;100.00
24336;BME280;33098;52.400;16.880;2022-10-24T06:40:08;100394.34;;;12.99;100.00
24336;BME280;33098;52.400;16.880;2022-10-24T06:42:35;100401.66;;;13.01;100.00
24336;BME280;33098;52.400;16.880;2022-10-24T06:45:06;100406.95;;;13.00;100.00
24336;BME280;33098;52.400;16.880;2022-10-24T06:47:35;100410.67;;;12.98;100.00
24336;BME280;33098;52.400;16.880;2022-10-24T06:50:05;100413.80;;;12.99;100.00
24336;BME280;33098;52.400;16.880;2022-10-24T06:52:31;100409.22;;;13.00;100.00
24336;BME280;33098;52.400;16.880;2022-10-24T06:54:58;100411.48;;;13.08;100.00
24336;BME280;33098;52.400;16.880;2022-10-24T06:57:25;100409.70;;;13.18;100.00
24336;BME280;33098;52.400;16.880;2022-10-24T06:59:51;100413.13;;;13.28;100.00
24336;BME280;33098;52.400;16.880;2022-10-24T07:02:18;100416.80;;;13.27;100.00
24336;BME280;33098;52.400;16.880;2022-10-24T07:04:45;100413.63;;;13.24;100.00
24336;BME280;33098;52.400;16.880;2022-10-24T07:07:15;100409.59;;;13.32;100.00
24336;BME280;33098;52.400;16.880;2022-10-24T07:09:49;100404.88;;;13.38;100.00
24336;BME280;33098;52.400;16.880;2022-10-24T07:12:19;100409.59;;;13.44;100.00
24336;BME280;33098;52.400;16.880;2022-10-24T07:14:46;100409.20;;;13.50;100.00
24336;BME280;33098;52.400;16.880;2022-10-24T07:17:14;100411.10;;;13.61;100.00
24336;BME280;33098;52.400;16.880;2022-10-24T07:19:44;100409.20;;;13.64;100.00
24336;BME280;33098;52.400;16.880;2022-10-24T07:22:11;100409.09;;;13.61;100.00
24336;BME280;33098;52.400;16.880;2022-10-24T07:24:37;100402.95;;;13.64;100.00
24336;BME280;33098;52.400;16.880;2022-10-24T07:27:04;100401.13;;;13.72;100.00
24336;BME280;33098;52.400;16.880;2022-10-24T07:29:31;100403.77;;;13.74;100.00
24336;BME280;33098;52.400;16.880;2022-10-24T07:31:57;100404.98;;;13.75;100.00
24336;BME280;33098;52.400;16.880;2022-10-24T07:34:27;100409.70;;;13.79;100.00
24336;BME280;33098;52.400;16.880;2022-10-24T07:36:53;100410.39;;;13.76;100.00
24336;BME280;33098;52.400;16.880;2022-10-24T07:39:20;100403.39;;;13.78;100.00
24336;BME280;33098;52.400;16.880;2022-10-24T07:41:46;100399.05;;;13.87;100.00
24336;BME280;33098;52.400;16.880;2022-10-24T07:44:13;100399.04;;;13.90;100.00
24336;BME280;33098;52.400;16.880;2022-10-24T07:46:41;100406.59;;;13.88;100.00
24336;BME280;33098;52.400;16.880;2022-10-24T07:49:10;100405.55;;;13.87;100.00
24336;BME280;33098;52.400;16.880;2022-10-24T07:51:37;100408.83;;;13.88;100.00
24336;BME280;33098;52.400;16.880;2022-10-24T07:54:03;100410.09;;;13.93;100.00
24336;BME280;33098;52.400;16.880;2022-10-24T07:56:30;100404.41;;;13.93;100.00
24336;BME280;33098;52.400;16.880;2022-10-24T07:58:58;100401.77;;;13.88;100.00
24336;BME280;33098;52.400;16.880;2022-10-24T08:01:26;100400.16;;;13.88;100.00
24336;BME280;33098;52.400;16.880;2022-10-24T08:03:56;100411.51;;;13.88;100.00
24336;BME280;33098;52.400;16.880;2022-10-24T08:06:25;100405.09;;;13.93;100.00
24336;BME280;33098;52.400;16.880;2022-10-24T08:08:53;100407.75;;;13.99;100.00
24336;BME280;33098;52.400;16.880;2022-10-24T08:11:23;100406.73;;;14.04;100.00
24336;BME280;33098;52.400;16.880;2022-10-24T08:13:50;100406.33;;;14.08;100.00
24336;BME280;33098;52.400;16.880;2022-10-24T08:16:18;100408.32;;;14.19;100.00
24336;BME280;33098;52.400;16.880;2022-10-24T08:18:46;100410.29;;;14.33;100.00
24336;BME280;33098;52.400;16.880;2022-10-24T08:21:14;100397.80;;;14.40;100.00
24336;BME280;33098;52.400;16.880;2022-10-24T08:23:46;100405.14;;;14.51;100.00
24336;BME280;33098;52.400;16.880;2022-10-24T08:26:14;100405.81;;;14.55;100.00
24336;BME280;33098;52.400;16.880;2022-10-24T08:28:42;100404.27;;;14.59;100.00
24336;BME280;33098;52.400;16.880;2022-10-24T08:31:15;100402.30;;;14.66;100.00
24336;BME280;33098;52.400;16.880;2022-10-24T08:33:42;100398.21;;;14.66;100.00
24336;BME280;33098;52.400;16.880;2022-10-24T08:36:15;100397.79;;;14.70;100.00
24336;BME280;33098;52.400;16.880;2022-10-24T08:38:42;100405.42;;;14.74;100.00
24336;BME280;33098;52.400;16.880;2022-10-24T08:41:09;100402.40;;;14.82;100.00
24336;BME280;33098;52.400;16.880;2022-10-24T08:43:41;100400.36;;;14.83;100.00
24336;BME280;33098;52.400;16.880;2022-10-24T08:48:40;100403.02;;;14.96;100.00
24336;BME280;33098;52.400;16.880;2022-10-24T08:51:18;100405.97;;;15.04;100.00
24336;BME280;33098;52.400;16.880;2022-10-24T08:53:47;100413.64;;;15.13;100.00
24336;BME280;33098;52.400;16.880;2022-10-24T08:56:16;100420.78;;;15.21;100.00
24336;BME280;33098;52.400;16.880;2022-10-24T08:58:43;100420.21;;;15.21;100.00
24336;BME280;33098;52.400;16.880;2022-10-24T09:01:28;100424.23;;;15.24;100.00
24336;BME280;33098;52.400;16.880;2022-10-24T09:04:02;100424.29;;;15.19;100.00
24336;BME280;33098;52.400;16.880;2022-10-24T09:06:30;100422.58;;;15.18;100.00
24336;BME280;33098;52.400;16.880;2022-10-24T09:09:01;100421.88;;;15.18;100.00
24336;BME280;33098;52.400;16.880;2022-10-24T09:14:21;100414.48;;;15.21;100.00
24336;BME280;33098;52.400;16.880;2022-10-24T09:16:58;100419.30;;;15.19;100.00
24336;BME280;33098;52.400;16.880;2022-10-24T09:19:26;100418.23;;;15.25;100.00
24336;BME280;33098;52.400;16.880;2022-10-24T09:21:53;100417.42;;;15.30;100.00
24336;BME280;33098;52.400;16.880;2022-10-24T09:24:23;100418.61;;;15.37;100.00
24336;BME280;33098;52.400;16.880;2022-10-24T09:26:53;100422.29;;;15.47;100.00
24336;BME280;33098;52.400;16.880;2022-10-24T09:29:22;100411.83;;;15.55;100.00
24336;BME280;33098;52.400;16.880;2022-10-24T09:31:52;100412.27;;;15.63;100.00
24336;BME280;33098;52.400;16.880;2022-10-24T09:34:18;100412.65;;;15.68;100.00
24336;BME280;33098;52.400;16.880;2022-10-24T09:36:47;100409.34;;;15.69;100.00
24336;BME280;33098;52.400;16.880;2022-10-24T09:39:30;100415.05;;;15.73;100.00
24336;BME280;33098;52.400;16.880;2022-10-24T09:41:58;100413.85;;;15.74;100.00
24336;BME280;33098;52.400;16.880;2022-10-24T09:44:30;100417.06;;;15.75;100.00
24336;BME280;33098;52.400;16.880;2022-10-24T09:46:57;100419.30;;;15.73;100.00
24336;BME280;33098;52.400;16.880;2022-10-24T09:49:38;100426.70;;;15.76;100.00
24336;BME280;33098;52.400;16.880;2022-10-24T09:52:18;100428.61;;;15.80;100.00
24336;BME280;33098;52.400;16.880;2022-10-24T09:54:46;100430.95;;;15.86;100.00
24336;BME280;33098;52.400;16.880;2022-10-24T09:57:36;100432.35;;;15.88;100.00
24336;BME280;33098;52.400;16.880;2022-10-24T10:00:10;100428.03;;;15.89;100.00
24336;BME280;33098;52.400;16.880;2022-10-24T10:02:55;100434.11;;;15.97;100.00
24336;BME280;33098;52.400;16.880;2022-10-24T10:05:22;100423.29;;;16.00;100.00
24336;BME280;33098;52.400;16.880;2022-10-24T10:07:52;100417.32;;;16.06;100.00
24336;BME280;33098;52.400;16.880;2022-10-24T10:10:29;100412.23;;;16.15;100.00
24336;BME280;33098;52.400;16.880;2022-10-24T10:20:57;100407.77;;;16.64;100.00
24336;BME280;33098;52.400;16.880;2022-10-24T10:23:29;100408.92;;;16.76;100.00
24336;BME280;33098;52.400;16.880;2022-10-24T10:26:15;100414.59;;;16.88;100.00
24336;BME280;33098;52.400;16.880;2022-10-24T10:29:02;100415.52;;;16.98;100.00
24336;BME280;33098;52.400;16.880;2022-10-24T10:31:36;100408.63;;;17.12;100.00
24336;BME280;33098;52.400;16.880;2022-10-24T10:41:42;100405.25;;;17.73;100.00
24336;BME280;33098;52.400;16.880;2022-10-24T10:44:18;100399.46;;;17.89;100.00
24336;BME280;33098;52.400;16.880;2022-10-24T10:49:41;100388.54;;;18.13;100.00
24336;BME280;33098;52.400;16.880;2022-10-24T10:52:11;100394.69;;;18.21;100.00
24336;BME280;33098;52.400;16.880;2022-10-24T10:57:07;100400.58;;;18.34;100.00
24336;BME280;33098;52.400;16.880;2022-10-24T11:02:03;100405.56;;;18.47;100.00
24336;BME280;33098;52.400;16.880;2022-10-24T11:04:39;100404.13;;;18.51;100.00
24336;BME280;33098;52.400;16.880;2022-10-24T11:09:44;100396.15;;;18.60;100.00
24336;BME280;33098;52.400;16.880;2022-10-24T11:12:18;100395.66;;;18.62;100.00
24336;BME280;33098;52.400;16.880;2022-10-24T11:14:49;100394.15;;;18.69;100.00
24336;BME280;33098;52.400;16.880;2022-10-24T11:23:04;100393.13;;;18.92;99.90
24336;BME280;33098;52.400;16.880;2022-10-24T11:25:43;100392.90;;;18.96;99.92
24336;BME280;33098;52.400;16.880;2022-10-24T11:33:25;100397.94;;;19.06;98.04
24336;BME280;33098;52.400;16.880;2022-10-24T11:38:23;100388.66;;;19.19;98.27
24336;BME280;33098;52.400;16.880;2022-10-24T11:40:52;100377.41;;;19.21;97.70
24336;BME280;33098;52.400;16.880;2022-10-24T11:43:23;100372.04;;;19.30;98.21
24336;BME280;33098;52.400;16.880;2022-10-24T11:46:00;100371.80;;;19.49;99.04
24336;BME280;33098;52.400;16.880;2022-10-24T11:51:12;100381.95;;;19.79;98.11
24336;BME280;33098;52.400;16.880;2022-10-24T11:58:56;100367.61;;;20.14;96.87
24336;BME280;33098;52.400;16.880;2022-10-24T12:14:52;100350.48;;;20.61;94.05
24336;BME280;33098;52.400;16.880;2022-10-24T12:20:17;100352.40;;;20.80;91.67
24336;BME280;33098;52.400;16.880;2022-10-24T12:22:45;100351.77;;;20.92;92.45
24336;BME280;33098;52.400;16.880;2022-10-24T12:27:42;100347.70;;;21.19;91.82
24336;BME280;33098;52.400;16.880;2022-10-24T12:30:14;100343.63;;;21.24;90.84
24336;BME280;33098;52.400;16.880;2022-10-24T12:32:46;100344.12;;;21.24;89.75
24336;BME280;33098;52.400;16.880;2022-10-24T12:38:01;100334.71;;;21.24;88.35
24336;BME280;33098;52.400;16.880;2022-10-24T12:43:40;100333.79;;;21.24;88.70
24336;BME280;33098;52.400;16.880;2022-10-24T12:48:42;100314.36;;;21.40;88.99
24336;BME280;33098;52.400;16.880;2022-10-24T12:57:25;100310.77;;;21.49;87.51
24336;BME280;33098;52.400;16.880;2022-10-24T12:59:28;100313.83;;;21.46;86.89
24336;BME280;33098;52.400;16.880;2022-10-24T13:07:14;100299.00;;;21.36;85.17
24336;BME280;33098;52.400;16.880;2022-10-24T13:09:54;100304.04;;;21.26;85.00
24336;BME280;33098;52.400;16.880;2022-10-24T13:12:32;100308.02;;;21.20;85.53
24336;BME280;33098;52.400;16.880;2022-10-24T13:17:31;100314.75;;;21.10;86.36
24336;BME280;33098;52.400;16.880;2022-10-24T13:20:04;100318.74;;;21.01;86.82
24336;BME280;33098;52.400;16.880;2022-10-24T13:22:32;100313.07;;;20.91;85.96
24336;BME280;33098;52.400;16.880;2022-10-24T13:25:16;100314.52;;;20.84;86.49
24336;BME280;33098;52.400;16.880;2022-10-24T13:27:43;100307.17;;;20.76;86.14
24336;BME280;33098;52.400;16.880;2022-10-24T13:30:24;100307.60;;;20.68;86.17
24336;BME280;33098;52.400;16.880;2022-10-24T13:33:16;100301.29;;;20.62;86.45
24336;BME280;33098;52.400;16.880;2022-10-24T13:35:37;100301.77;;;20.60;86.98
24336;BME280;33098;52.400;16.880;2022-10-24T13:38:08;100299.94;;;20.57;87.24
24336;BME280;33098;52.400;16.880;2022-10-24T13:40:40;100304.45;;;20.52;87.42
24336;BME280;33098;52.400;16.880;2022-10-24T13:43:13;100298.27;;;20.50;88.10
24336;BME280;33098;52.400;16.880;2022-10-24T13:48:17;100306.85;;;20.48;88.78
24336;BME280;33098;52.400;16.880;2022-10-24T13:53:41;100312.75;;;20.34;88.70
24336;BME280;33098;52.400;16.880;2022-10-24T13:56:11;100319.30;;;20.26;88.21
24336;BME280;33098;52.400;16.880;2022-10-24T13:58:43;100319.05;;;20.20;88.19
24336;BME280;33098;52.400;16.880;2022-10-24T14:01:27;100322.77;;;20.15;88.48
24336;BME280;33098;52.400;16.880;2022-10-24T14:03:56;100327.81;;;20.12;88.67
24336;BME280;33098;52.400;16.880;2022-10-24T14:06:28;100326.20;;;20.07;89.35
24336;BME280;33098;52.400;16.880;2022-10-24T14:08:59;100317.94;;;20.05;89.68
24336;BME280;33098;52.400;16.880;2022-10-24T14:11:30;100312.36;;;20.05;90.08
24336;BME280;33098;52.400;16.880;2022-10-24T14:16:40;100307.90;;;19.95;90.10
24336;BME280;33098;52.400;16.880;2022-10-24T14:21:41;100310.27;;;19.84;90.48
24336;BME280;33098;52.400;16.880;2022-10-24T14:24:21;100319.03;;;19.76;90.43
24336;BME280;33098;52.400;16.880;2022-10-24T14:26:49;100319.42;;;19.64;90.50
24336;BME280;33098;52.400;16.880;2022-10-24T14:29:26;100320.50;;;19.57;90.72
24336;BME280;33098;52.400;16.880;2022-10-24T14:32:00;100327.33;;;19.52;90.74
24336;BME280;33098;52.400;16.880;2022-10-24T14:34:28;100325.77;;;19.49;91.22
24336;BME280;33098;52.400;16.880;2022-10-24T14:37:03;100318.98;;;19.45;91.25
24336;BME280;33098;52.400;16.880;2022-10-24T14:39:31;100322.26;;;19.43;91.79
24336;BME280;33098;52.400;16.880;2022-10-24T14:42:01;100319.95;;;19.40;91.96
24336;BME280;33098;52.400;16.880;2022-10-24T14:44:30;100322.23;;;19.36;92.30
24336;BME280;33098;52.400;16.880;2022-10-24T14:49:31;100326.14;;;19.26;92.61
24336;BME280;33098;52.400;16.880;2022-10-24T14:52:07;100325.65;;;19.19;92.72
24336;BME280;33098;52.400;16.880;2022-10-24T14:54:34;100332.27;;;19.13;93.03
24336;BME280;33098;52.400;16.880;2022-10-24T14:57:02;100332.52;;;19.04;93.40
24336;BME280;33098;52.400;16.880;2022-10-24T14:59:31;100329.17;;;19.00;93.77
24336;BME280;33098;52.400;16.880;2022-10-24T15:04:50;100329.77;;;18.94;94.31
24336;BME280;33098;52.400;16.880;2022-10-24T15:10:00;100327.53;;;18.89;94.70